createdAt,value
2023-01-13T00:01:16.642Z,99641.81
2023-01-13T00:03:44.185Z,99641.88
2023-01-13T00:06:19.254Z,99644.63
2023-01-13T00:08:50.060Z,99641.19
2023-01-13T00:11:17.862Z,99639.53
2023-01-13T00:13:44.869Z,99646.59
2023-01-13T00:16:12.627Z,99628.47
2023-01-13T00:18:39.232Z,99657.44
2023-01-13T00:21:08.750Z,99651.53
2023-01-13T00:23:35.924Z,99647.38
2023-01-13T00:26:06.941Z,99656.28
2023-01-13T00:28:33.992Z,99649.63
2023-01-13T00:31:06.566Z,99643.66
2023-01-13T00:33:33.535Z,99640.34
2023-01-13T00:36:01.538Z,99664.09
2023-01-13T00:38:31.394Z,99659.84
2023-01-13T00:41:09.567Z,99660.06
2023-01-13T00:43:38.989Z,99666.25
2023-01-13T00:46:07.876Z,99662.84
2023-01-13T00:48:34.995Z,99652.38
2023-01-13T00:51:01.429Z,99670.81
2023-01-13T00:53:28.510Z,99686.63
2023-01-13T00:56:03.325Z,99664.03
2023-01-13T00:58:32.406Z,99652.84
2023-01-13T01:01:07.027Z,99659.88
2023-01-13T01:03:34.913Z,99649.53
2023-01-13T01:06:07.811Z,99646.97
2023-01-13T01:08:35.790Z,99656.59
2023-01-13T01:11:10.574Z,99655.75
2023-01-13T01:13:37.736Z,99645.41
2023-01-13T01:16:07.513Z,99645.47
2023-01-13T01:18:35.686Z,99648.09
2023-01-13T01:21:03.011Z,99650.81
2023-01-13T01:23:31.090Z,99660.38
2023-01-13T01:26:02.536Z,99656.16
2023-01-13T01:28:29.002Z,99664.06
2023-01-13T01:30:55.685Z,99674.56
2023-01-13T01:33:22.450Z,99686.78
2023-01-13T01:35:49.212Z,99677.22
2023-01-13T01:38:16.191Z,99669.44
2023-01-13T01:40:42.891Z,99667.72
2023-01-13T01:43:36.531Z,99665.09
2023-01-13T01:46:03.053Z,99666.94
2023-01-13T01:48:35.007Z,99674.84
2023-01-13T01:51:02.560Z,99682.00
2023-01-13T01:53:31.472Z,99686.50
2023-01-13T01:55:59.914Z,99676.16
2023-01-13T01:58:37.565Z,99675.31
2023-01-13T02:01:04.949Z,99685.94
2023-01-13T02:03:31.620Z,99680.84
2023-01-13T02:05:58.055Z,99678.38
2023-01-13T02:08:25.101Z,99686.28
2023-01-13T02:10:53.561Z,99678.66
2023-01-13T02:13:22.405Z,99677.88
2023-01-13T02:15:58.450Z,99683.16
2023-01-13T02:18:52.441Z,99670.25
2023-01-13T02:21:52.019Z,99678.16
2023-01-13T02:24:55.759Z,99684.34
2023-01-13T02:27:34.881Z,99676.56
2023-01-13T02:30:23.472Z,99682.78
2023-01-13T02:33:13.851Z,99676.72
2023-01-13T02:35:51.180Z,99678.50
2023-01-13T02:38:23.881Z,99681.16
2023-01-13T02:41:19.964Z,99683.88
2023-01-13T02:44:08.202Z,99683.06
2023-01-13T02:46:41.337Z,99679.63
2023-01-13T02:49:13.752Z,99683.16
2023-01-13T02:51:42.147Z,99685.84
2023-01-13T02:54:18.099Z,99681.56
2023-01-13T02:56:48.550Z,99680.75
2023-01-13T02:59:15.670Z,99683.47
2023-01-13T03:01:42.746Z,99682.63
2023-01-13T03:04:46.983Z,99684.44
2023-01-13T03:07:29.352Z,99683.63
2023-01-13T03:10:08.133Z,99688.03
2023-01-13T03:12:58.038Z,99687.16
2023-01-13T03:15:48.834Z,99686.31
2023-01-13T03:18:37.301Z,99684.66
2023-01-13T03:21:27.257Z,99686.50
2023-01-13T03:24:30.772Z,99692.66
2023-01-13T03:27:03.882Z,99693.63
2023-01-13T03:29:36.996Z,99701.59
2023-01-13T03:32:24.910Z,99705.00
2023-01-13T03:35:16.379Z,99698.94
2023-01-13T03:37:47.728Z,99698.94
2023-01-13T03:40:18.662Z,99710.25
2023-01-13T03:43:09.995Z,99699.91
2023-01-13T03:45:41.531Z,99706.03
2023-01-13T03:48:16.918Z,99707.81
2023-01-13T03:50:52.726Z,99708.72
2023-01-13T03:53:30.090Z,99711.41
2023-01-13T03:56:07.811Z,99714.91
2023-01-13T03:58:41.463Z,99718.41
2023-01-13T04:01:19.056Z,99715.84
2023-01-13T04:04:01.463Z,99716.72
2023-01-13T04:06:33.423Z,99718.53
2023-01-13T04:09:12.018Z,99718.63
2023-01-13T04:11:44.569Z,99717.75
2023-01-13T04:14:13.881Z,99722.09
2023-01-13T04:16:41.398Z,99712.53
2023-01-13T04:19:07.895Z,99702.97
2023-01-13T04:21:35.585Z,99694.41
2023-01-13T04:24:02.387Z,99694.41
2023-01-13T04:26:28.984Z,99690.16
2023-01-13T04:28:56.282Z,99693.75
2023-01-13T04:31:23.068Z,99696.44
2023-01-13T04:33:49.805Z,99686.09
2023-01-13T04:36:16.589Z,99693.97
2023-01-13T04:38:43.053Z,99686.22
2023-01-13T04:41:09.787Z,99687.16
2023-01-13T04:43:36.691Z,99694.97
2023-01-13T04:46:03.169Z,99707.25
2023-01-13T04:48:29.904Z,99707.28
2023-01-13T04:50:56.461Z,99713.47
2023-01-13T04:53:23.021Z,99714.38
2023-01-13T04:55:50.114Z,99708.38
2023-01-13T04:58:16.722Z,99708.47
2023-01-13T05:00:43.456Z,99713.75
2023-01-13T05:03:10.235Z,99711.19
2023-01-13T05:05:37.840Z,99710.34
2023-01-13T05:08:05.259Z,99708.63
2023-01-13T05:10:31.732Z,99698.25
2023-01-13T05:13:16.874Z,99701.75
2023-01-13T05:16:16.240Z,99699.16
2023-01-13T05:18:42.840Z,99698.34
2023-01-13T05:21:29.491Z,99697.53
2023-01-13T05:24:19.576Z,99701.88
2023-01-13T05:26:46.084Z,99708.91
2023-01-13T05:29:12.547Z,99695.84
2023-01-13T05:31:38.990Z,99701.06
2023-01-13T05:34:05.845Z,99695.03
2023-01-13T05:36:32.444Z,99680.31
2023-01-13T05:38:58.978Z,99687.28
2023-01-13T05:41:44.497Z,99686.44
2023-01-13T05:44:11.262Z,99686.44
2023-01-13T05:46:37.991Z,99682.06
2023-01-13T05:49:05.565Z,99678.66
2023-01-13T05:51:32.065Z,99678.66
2023-01-13T05:53:59.239Z,99679.56
2023-01-13T05:56:26.422Z,99682.19
2023-01-13T05:58:52.899Z,99677.00
2023-01-13T06:01:19.468Z,99681.28
2023-01-13T06:03:46.543Z,99686.44
2023-01-13T06:06:12.970Z,99689.03
2023-01-13T06:08:40.216Z,99685.59
2023-01-13T06:11:07.031Z,99691.69
2023-01-13T06:13:33.517Z,99693.38
2023-01-13T06:16:00.877Z,99697.69
2023-01-13T06:18:28.187Z,99702.94
2023-01-13T06:20:54.740Z,99700.34
2023-01-13T06:23:23.801Z,99704.66
2023-01-13T06:26:13.511Z,99696.81
2023-01-13T06:28:40.174Z,99693.34
2023-01-13T06:31:08.617Z,99690.69
2023-01-13T06:33:44.792Z,99686.31
2023-01-13T06:36:19.806Z,99688.03
2023-01-13T06:38:49.358Z,99684.53
2023-01-13T06:41:16.733Z,99688.84
2023-01-13T06:43:43.266Z,99678.41
2023-01-13T06:46:10.048Z,99678.34
2023-01-13T06:48:36.694Z,99679.28
2023-01-13T06:51:04.997Z,99683.59
2023-01-13T06:53:31.604Z,99678.41
2023-01-13T06:55:58.046Z,99680.16
2023-01-13T06:58:24.823Z,99677.59
2023-01-13T07:00:51.749Z,99674.09
2023-01-13T07:03:20.086Z,99675.03
2023-01-13T07:05:54.727Z,99676.75
2023-01-13T07:08:22.849Z,99675.06
2023-01-13T07:10:49.437Z,99681.22
2023-01-13T07:13:34.793Z,99682.16
2023-01-13T07:16:05.078Z,99676.94
2023-01-13T07:18:33.183Z,99681.28
2023-01-13T07:21:04.747Z,99678.69
2023-01-13T07:23:33.886Z,99676.06
2023-01-13T07:26:01.660Z,99684.72
2023-01-13T07:28:29.738Z,99682.97
2023-01-13T07:30:56.895Z,99688.97
2023-01-13T07:33:24.289Z,99695.84
2023-01-13T07:35:58.612Z,99687.97
2023-01-13T07:38:25.825Z,99681.84
2023-01-13T07:40:52.627Z,99688.72
2023-01-13T07:43:34.968Z,99685.28
2023-01-13T07:46:06.704Z,99689.66
2023-01-13T07:48:37.403Z,99688.81
2023-01-13T07:51:06.808Z,99674.97
2023-01-13T07:53:34.678Z,99684.53
2023-01-13T07:56:04.836Z,99680.28
2023-01-13T07:58:33.413Z,99684.59
2023-01-13T08:01:00.381Z,99682.88
2023-01-13T08:03:27.180Z,99686.41
2023-01-13T08:05:53.563Z,99679.50
2023-01-13T08:08:22.321Z,99685.53
2023-01-13T08:10:48.754Z,99673.47
2023-01-13T08:13:18.166Z,99682.06
2023-01-13T08:15:46.020Z,99681.19
2023-01-13T08:18:13.120Z,99676.84
2023-01-13T08:20:39.976Z,99686.31
2023-01-13T08:23:07.444Z,99682.75
2023-01-13T08:25:34.622Z,99674.81
2023-01-13T08:28:01.331Z,99675.66
2023-01-13T08:30:27.953Z,99687.66
2023-01-13T08:32:54.878Z,99693.63
2023-01-13T08:35:22.571Z,99686.56
2023-01-13T08:37:51.107Z,99689.06
2023-01-13T08:40:19.021Z,99695.91
2023-01-13T08:42:48.492Z,99689.72
2023-01-13T08:45:18.053Z,99695.78
2023-01-13T08:47:44.783Z,99695.72
2023-01-13T08:50:11.556Z,99703.41
2023-01-13T08:52:38.173Z,99699.00
2023-01-13T08:55:05.160Z,99702.38
2023-01-13T08:57:31.681Z,99680.63
2023-01-13T08:59:58.202Z,99680.53
2023-01-13T09:02:25.463Z,99687.34
2023-01-13T09:04:52.596Z,99687.25
2023-01-13T09:07:19.615Z,99672.41
2023-01-13T09:09:46.321Z,99674.97
2023-01-13T09:12:34.545Z,99665.41
2023-01-13T09:15:01.719Z,99667.97
2023-01-13T09:17:28.171Z,99661.97
2023-01-13T09:19:54.760Z,99677.63
2023-01-13T09:22:21.807Z,99667.19
2023-01-13T09:24:48.175Z,99671.56
2023-01-13T09:27:15.545Z,99674.91
2023-01-13T09:29:42.400Z,99680.88
2023-01-13T09:32:12.681Z,99668.63
2023-01-13T09:34:58.086Z,99676.31
2023-01-13T09:37:24.886Z,99671.84
2023-01-13T09:39:51.419Z,99670.03
2023-01-13T09:43:00.795Z,99675.97
2023-01-13T09:45:42.369Z,99682.81
2023-01-13T09:48:27.993Z,99685.34
2023-01-13T09:51:10.061Z,99678.34
2023-01-13T09:53:48.135Z,99681.84
2023-01-13T09:56:14.646Z,99681.88
2023-01-13T09:58:41.943Z,99670.53
2023-01-13T10:01:23.892Z,99678.34
2023-01-13T10:03:50.934Z,99667.06
2023-01-13T10:06:23.346Z,99663.63
2023-01-13T10:08:51.036Z,99671.41
2023-01-13T10:11:37.441Z,99681.78
2023-01-13T10:14:16.539Z,99674.81
2023-01-13T10:17:20.869Z,99673.06
2023-01-13T10:20:22.497Z,99674.75
2023-01-13T10:23:00.097Z,99675.53
2023-01-13T10:25:41.967Z,99666.81
2023-01-13T10:28:13.058Z,99669.34
2023-01-13T10:30:42.982Z,99661.50
2023-01-13T10:33:10.964Z,99656.25
2023-01-13T10:36:01.601Z,99665.75
2023-01-13T10:38:31.031Z,99663.09
2023-01-13T10:41:00.123Z,99663.03
2023-01-13T10:43:28.382Z,99668.13
2023-01-13T10:46:00.432Z,99672.34
2023-01-13T10:48:33.021Z,99674.88
2023-01-13T10:51:10.779Z,99673.91
2023-01-13T10:53:55.342Z,99672.19
2023-01-13T10:56:24.043Z,99678.16
2023-01-13T10:58:50.826Z,99670.31
2023-01-13T11:01:26.443Z,99671.09
2023-01-13T11:03:55.048Z,99685.88
2023-01-13T11:06:28.778Z,99680.69
2023-01-13T11:09:03.078Z,99673.81
2023-01-13T11:11:57.193Z,99679.03
2023-01-13T11:14:41.867Z,99685.88
2023-01-13T11:17:46.309Z,99681.34
2023-01-13T11:20:31.000Z,99676.06
2023-01-13T11:22:59.969Z,99680.28
2023-01-13T11:25:41.833Z,99678.41
2023-01-13T11:28:18.863Z,99692.94
2023-01-13T11:30:50.683Z,99683.22
2023-01-13T11:33:30.656Z,99683.94
2023-01-13T11:36:12.199Z,99682.88
2023-01-13T11:38:54.452Z,99667.09
2023-01-13T11:41:44.088Z,99672.19
2023-01-13T11:44:16.585Z,99666.94
2023-01-13T11:46:43.206Z,99674.78
2023-01-13T11:49:28.201Z,99677.44
2023-01-13T11:52:14.552Z,99682.00
2023-01-13T11:55:02.512Z,99670.81
2023-01-13T11:57:47.202Z,99687.59
2023-01-13T12:00:22.167Z,99658.97
2023-01-13T12:03:08.434Z,99666.19
2023-01-13T12:05:44.634Z,99671.47
2023-01-13T12:08:20.295Z,99669.91
2023-01-13T12:11:05.298Z,99666.56
2023-01-13T12:13:56.573Z,99671.88
2023-01-13T12:16:31.734Z,99679.03
2023-01-13T12:19:10.642Z,99669.56
2023-01-13T12:22:14.780Z,99675.63
2023-01-13T12:24:58.170Z,99669.63
2023-01-13T12:27:43.083Z,99674.84
2023-01-13T12:30:22.412Z,99674.78
2023-01-13T12:32:50.789Z,99674.84
2023-01-13T12:35:22.452Z,99677.44
2023-01-13T12:38:03.592Z,99666.13
2023-01-13T12:40:36.333Z,99680.16
2023-01-13T12:43:35.213Z,99686.31
2023-01-13T12:46:21.113Z,99690.75
2023-01-13T12:49:02.680Z,99688.25
2023-01-13T12:51:33.334Z,99684.06
2023-01-13T12:54:02.304Z,99698.94
2023-01-13T12:56:44.437Z,99688.63
2023-01-13T12:59:17.358Z,99698.25
2023-01-13T13:01:45.994Z,99696.59
2023-01-13T13:04:17.012Z,99705.41
2023-01-13T13:07:12.405Z,99696.75
2023-01-13T13:09:52.236Z,99702.00
2023-01-13T13:12:49.469Z,99705.50
2023-01-13T13:15:24.845Z,99709.03
2023-01-13T13:18:20.848Z,99701.22
2023-01-13T13:21:08.787Z,99711.75
2023-01-13T13:23:57.063Z,99706.53
2023-01-13T13:26:42.454Z,99710.88
2023-01-13T13:29:28.609Z,99700.47
2023-01-13T13:31:57.814Z,99708.34
2023-01-13T13:34:38.066Z,99705.69
2023-01-13T13:37:26.121Z,99722.13
2023-01-13T13:40:12.317Z,99716.88
2023-01-13T13:43:13.000Z,99714.31
2023-01-13T13:46:09.557Z,99701.28
2023-01-13T13:48:37.093Z,99718.69
2023-01-13T13:51:38.415Z,99712.59
2023-01-13T13:54:05.964Z,99712.53
2023-01-13T13:56:38.289Z,99710.72
2023-01-13T13:59:04.848Z,99712.44
2023-01-13T14:01:37.719Z,99718.56
2023-01-13T14:04:15.577Z,99719.34
2023-01-13T14:07:00.813Z,99734.16
2023-01-13T14:09:29.380Z,99730.72
2023-01-13T14:12:02.199Z,99738.53
2023-01-13T14:14:29.631Z,99731.56
2023-01-13T14:16:56.570Z,99746.31
2023-01-13T14:19:36.748Z,99727.97
2023-01-13T14:22:04.994Z,99728.00
2023-01-13T14:24:32.323Z,99735.78
2023-01-13T14:27:16.855Z,99736.66
2023-01-13T14:29:44.670Z,99738.34
2023-01-13T14:32:18.330Z,99728.78
2023-01-13T14:34:45.713Z,99740.06
2023-01-13T14:37:23.181Z,99731.34
2023-01-13T14:39:49.770Z,99733.97
2023-01-13T14:42:17.502Z,99751.44
2023-01-13T14:44:50.282Z,99751.56
2023-01-13T14:47:20.737Z,99753.38
2023-01-13T14:50:16.268Z,99765.63
2023-01-13T14:52:51.142Z,99776.09
2023-01-13T14:55:22.375Z,99781.38
2023-01-13T14:57:49.589Z,99819.63
2023-01-13T15:00:24.820Z,99815.34
2023-01-13T15:02:57.400Z,99800.00
2023-01-13T15:05:27.061Z,99814.09
2023-01-13T15:07:55.016Z,99825.66
2023-01-13T15:10:35.066Z,99801.59
2023-01-13T15:13:05.573Z,99800.09
2023-01-13T15:15:35.802Z,99798.41
2023-01-13T15:18:12.244Z,99800.16
2023-01-13T15:20:40.461Z,99795.03
2023-01-13T15:23:07.090Z,99796.84
2023-01-13T15:25:39.549Z,99802.09
2023-01-13T15:28:13.562Z,99803.84
2023-01-13T15:30:40.099Z,99801.28
2023-01-13T15:33:12.273Z,99796.06
2023-01-13T15:35:42.749Z,99796.88
2023-01-13T15:38:11.634Z,99799.47
2023-01-13T15:40:38.384Z,99793.47
2023-01-13T15:43:23.887Z,99798.63
2023-01-13T15:46:09.796Z,99802.09
2023-01-13T15:48:36.436Z,99812.50
2023-01-13T15:51:04.134Z,99807.31
2023-01-13T15:53:31.124Z,99816.00
2023-01-13T15:55:59.905Z,99824.69
2023-01-13T15:58:29.664Z,99819.47
2023-01-13T16:00:56.354Z,99812.53
2023-01-13T16:03:23.195Z,99829.94
2023-01-13T16:05:49.769Z,99822.16
2023-01-13T16:08:17.566Z,99832.63
2023-01-13T16:10:47.429Z,99835.25
2023-01-13T16:13:15.456Z,99843.84
2023-01-13T16:15:45.660Z,99845.56
2023-01-13T16:18:26.039Z,99851.59
2023-01-13T16:20:53.550Z,99860.28
2023-01-13T16:23:22.677Z,99879.38
2023-01-13T16:25:50.389Z,99865.50
2023-01-13T16:28:22.878Z,99877.63
2023-01-13T16:30:49.482Z,99884.63
2023-01-13T16:33:15.981Z,99880.31
2023-01-13T16:36:08.956Z,99878.59
2023-01-13T16:38:29.759Z,99887.31
2023-01-13T16:40:57.032Z,99891.66
2023-01-13T16:43:23.456Z,99894.25
2023-01-13T16:45:50.031Z,99903.03
2023-01-13T16:48:22.895Z,99896.13
2023-01-13T16:50:49.547Z,99920.44
2023-01-13T16:53:16.201Z,99923.09
2023-01-13T16:55:43.279Z,99923.09
2023-01-13T16:58:17.090Z,99923.97
2023-01-13T17:00:46.690Z,99917.91
2023-01-13T17:03:14.595Z,99918.75
2023-01-13T17:05:43.185Z,99918.75
2023-01-13T17:08:18.102Z,99928.31
2023-01-13T17:10:45.496Z,99917.00
2023-01-13T17:13:16.281Z,99899.66
2023-01-13T17:15:44.483Z,99900.53
2023-01-13T17:18:13.595Z,99905.75
2023-01-13T17:20:40.471Z,99902.25
2023-01-13T17:23:06.997Z,99903.94
2023-01-13T17:25:33.559Z,99905.66
2023-01-13T17:28:00.125Z,99895.25
2023-01-13T17:30:27.287Z,99906.53
2023-01-13T17:32:53.745Z,99911.75
2023-01-13T17:35:24.627Z,99920.41
2023-01-13T17:37:52.819Z,99917.81
2023-01-13T17:40:19.677Z,99920.38
2023-01-13T17:42:46.219Z,99924.72
2023-01-13T17:45:12.858Z,99933.38
2023-01-13T17:47:39.595Z,99932.50
2023-01-13T17:50:06.518Z,99935.09
2023-01-13T17:52:33.770Z,99945.50
2023-01-13T17:55:00.547Z,99941.16
2023-01-13T17:57:27.121Z,99935.97
2023-01-13T17:59:53.671Z,99920.38
2023-01-13T18:02:20.374Z,99938.63
2023-01-13T18:04:47.084Z,99946.44
2023-01-13T18:07:13.708Z,99955.97
2023-01-13T18:09:40.393Z,99952.53
2023-01-13T18:12:07.199Z,99950.72
2023-01-13T18:14:34.705Z,99962.00
2023-01-13T18:17:01.518Z,99967.19
2023-01-13T18:19:46.764Z,99971.56
2023-01-13T18:22:32.756Z,99982.03
2023-01-13T18:25:18.141Z,99978.56
2023-01-13T18:27:44.657Z,99985.47
2023-01-13T18:30:12.415Z,99973.34
2023-01-13T18:32:39.204Z,99992.44
2023-01-13T18:35:10.263Z,99988.03
2023-01-13T18:37:40.891Z,100002.81
2023-01-13T18:40:09.703Z,100003.69
2023-01-13T18:42:53.917Z,100028.88
2023-01-13T18:45:24.485Z,100018.50
2023-01-13T18:47:51.645Z,100015.88
2023-01-13T18:50:18.693Z,100005.50
2023-01-13T18:52:45.552Z,100035.03
2023-01-13T18:55:12.181Z,100032.41
2023-01-13T18:57:42.080Z,100036.81
2023-01-13T19:00:12.248Z,100052.44
2023-01-13T19:02:38.926Z,100052.44
2023-01-13T19:05:06.253Z,100050.75
2023-01-13T19:07:35.534Z,100056.81
2023-01-13T19:10:04.538Z,100062.88
2023-01-13T19:12:31.257Z,100066.38
2023-01-13T19:14:58.385Z,100063.78
2023-01-13T19:17:27.074Z,100070.72
2023-01-13T19:19:55.841Z,100084.63
2023-01-13T19:22:32.586Z,100083.72
2023-01-13T19:25:00.378Z,100091.53
2023-01-13T19:27:27.647Z,100081.13
2023-01-13T19:29:57.412Z,100100.25
2023-01-13T19:32:24.854Z,100088.09
2023-01-13T19:34:51.648Z,100087.22
2023-01-13T19:37:19.435Z,100091.56
2023-01-13T19:39:46.404Z,100101.97
2023-01-13T19:42:32.255Z,100109.75
2023-01-13T19:45:17.906Z,100108.06
2023-01-13T19:47:45.830Z,100114.13
2023-01-13T19:50:13.974Z,100117.56
2023-01-13T19:52:41.888Z,100114.09
2023-01-13T19:55:09.808Z,100133.16
2023-01-13T19:57:37.386Z,100128.84
2023-01-13T20:00:06.436Z,100133.19
2023-01-13T20:02:44.833Z,100142.69
2023-01-13T20:05:12.709Z,100132.25
2023-01-13T20:07:39.756Z,100136.56
2023-01-13T20:10:06.564Z,100146.16
2023-01-13T20:12:33.004Z,100151.34
2023-01-13T20:14:59.733Z,100157.41
2023-01-13T20:17:26.373Z,100142.66
2023-01-13T20:19:53.311Z,100153.09
2023-01-13T20:22:20.177Z,100154.81
2023-01-13T20:24:46.739Z,100167.81
2023-01-13T20:27:13.530Z,100169.59
2023-01-13T20:29:40.036Z,100176.56
2023-01-13T20:32:06.604Z,100172.22
2023-01-13T20:34:33.437Z,100169.63
2023-01-13T20:37:00.421Z,100182.63
2023-01-13T20:39:26.956Z,100191.28
2023-01-13T20:42:12.835Z,100189.53
2023-01-13T20:44:39.543Z,100188.63
2023-01-13T20:47:07.087Z,100185.09
2023-01-13T20:49:35.970Z,100187.72
2023-01-13T20:52:08.957Z,100188.59
2023-01-13T20:54:37.023Z,100194.66
2023-01-13T20:57:05.103Z,100194.63
2023-01-13T20:59:31.648Z,100197.25
2023-01-13T21:01:58.135Z,100209.41
2023-01-13T21:04:24.790Z,100202.44
2023-01-13T21:06:52.206Z,100206.78
2023-01-13T21:09:19.031Z,100212.88
2023-01-13T21:12:04.215Z,100206.78
2023-01-13T21:14:49.760Z,100227.66
2023-01-13T21:17:34.962Z,100231.13
2023-01-13T21:20:04.148Z,100230.28
2023-01-13T21:22:31.052Z,100239.81
2023-01-13T21:24:58.446Z,100238.13
2023-01-13T21:27:26.003Z,100250.25
2023-01-13T21:29:52.552Z,100256.34
2023-01-13T21:32:19.210Z,100252.91
2023-01-13T21:34:46.111Z,100254.69
2023-01-13T21:37:14.906Z,100261.63
2023-01-13T21:39:42.435Z,100272.03
2023-01-13T21:42:33.558Z,100288.56
2023-01-13T21:45:18.769Z,100287.69
2023-01-13T21:47:48.509Z,100296.38
2023-01-13T21:50:27.194Z,100313.78
2023-01-13T21:52:54.798Z,100325.03
2023-01-13T21:55:25.397Z,100326.78
2023-01-13T21:58:07.211Z,100322.44
2023-01-13T22:00:34.706Z,100331.09
2023-01-13T22:03:06.381Z,100332.84
2023-01-13T22:05:33.443Z,100339.78
2023-01-13T22:07:59.911Z,100338.91
2023-01-13T22:10:30.197Z,100351.06
2023-01-13T22:12:59.372Z,100368.44
2023-01-13T22:15:28.200Z,100364.94
2023-01-13T22:17:55.584Z,100371.91
2023-01-13T22:20:23.067Z,100374.53
2023-01-13T22:22:49.870Z,100372.81
2023-01-13T22:25:17.242Z,100379.75
2023-01-13T22:27:44.916Z,100385.84
2023-01-13T22:30:24.992Z,100388.44
2023-01-13T22:32:51.587Z,100397.13
2023-01-13T22:35:18.149Z,100411.91
2023-01-13T22:37:46.977Z,100406.69
2023-01-13T22:40:13.667Z,100411.06
2023-01-13T22:42:42.251Z,100416.25
2023-01-13T22:45:11.928Z,100420.63
2023-01-13T22:47:38.613Z,100414.53
2023-01-13T22:50:06.179Z,100414.53
2023-01-13T22:52:33.828Z,100421.50
2023-01-13T22:55:00.849Z,100424.97
2023-01-13T22:57:36.793Z,100436.25
2023-01-13T23:00:14.830Z,100438.00
2023-01-13T23:02:41.559Z,100433.66
2023-01-13T23:05:08.391Z,100442.38
2023-01-13T23:07:35.632Z,100442.41
2023-01-13T23:10:02.895Z,100457.13
2023-01-13T23:12:29.405Z,100452.84
2023-01-13T23:14:55.976Z,100460.63
2023-01-13T23:17:22.580Z,100461.50
2023-01-13T23:19:49.108Z,100461.47
2023-01-13T23:22:15.732Z,100465.81
2023-01-13T23:24:42.401Z,100476.22
2023-01-13T23:27:08.995Z,100475.34
2023-01-13T23:29:35.789Z,100481.41
2023-01-13T23:32:02.516Z,100485.72
2023-01-13T23:34:28.951Z,100486.56
2023-01-13T23:36:55.924Z,100486.56
2023-01-13T23:39:22.548Z,100496.13
2023-01-13T23:41:49.024Z,100493.53
2023-01-13T23:44:16.310Z,100503.94
2023-01-13T23:46:42.784Z,100496.97
2023-01-13T23:49:09.240Z,100498.72
2023-01-13T23:51:35.912Z,100509.16
2023-01-13T23:54:02.556Z,100510.00
2023-01-13T23:56:31.234Z,100516.97
2023-01-13T23:58:57.995Z,100510.91
